sensor_id;sensor_type;location;lat;lon;timestamp;temperature;humidity
30328;DHT22;17133;52.418;13.398;2022-10-16T12:58:23;20.10;99.90
30328;DHT22;17133;52.418;13.398;2022-10-16T13:00:56;20.10;99.90
30328;DHT22;17133;52.418;13.398;2022-10-16T13:06:30;19.90;99.90
30328;DHT22;17133;52.418;13.398;2022-10-16T13:09:25;20.00;99.90
30328;DHT22;17133;52.418;13.398;2022-10-16T13:19:45;17.70;99.90
30328;DHT22;17133;52.418;13.398;2022-10-16T13:22:34;19.80;99.90
30328;DHT22;17133;52.418;13.398;2022-10-16T13:30:40;19.60;99.90
30328;DHT22;17133;52.418;13.398;2022-10-16T13:35:57;19.70;99.90
30328;DHT22;17133;52.418;13.398;2022-10-16T13:38:33;19.70;99.90
30328;DHT22;17133;52.418;13.398;2022-10-16T13:41:04;19.70;99.90
30328;DHT22;17133;52.418;13.398;2022-10-16T13:43:43;19.80;99.90
30328;DHT22;17133;52.418;13.398;2022-10-16T13:46:14;19.70;99.90
30328;DHT22;17133;52.418;13.398;2022-10-16T13:48:40;19.90;99.90
30328;DHT22;17133;52.418;13.398;2022-10-16T13:51:06;20.00;99.90
30328;DHT22;17133;52.418;13.398;2022-10-16T13:53:36;20.10;99.90
30328;DHT22;17133;52.418;13.398;2022-10-16T13:56:04;20.20;99.90
30328;DHT22;17133;52.418;13.398;2022-10-16T13:58:30;20.30;99.90
30328;DHT22;17133;52.418;13.398;2022-10-16T14:01:02;19.50;99.90
30328;DHT22;17133;52.418;13.398;2022-10-16T14:03:29;20.40;99.90
30328;DHT22;17133;52.418;13.398;2022-10-16T14:05:59;20.40;99.90
30328;DHT22;17133;52.418;13.398;2022-10-16T14:08:27;20.20;99.90
30328;DHT22;17133;52.418;13.398;2022-10-16T14:10:59;22.50;99.90
30328;DHT22;17133;52.418;13.398;2022-10-16T14:13:34;20.40;99.90
30328;DHT22;17133;52.418;13.398;2022-10-16T14:16:06;20.30;99.90
30328;DHT22;17133;52.418;13.398;2022-10-16T14:18:33;20.20;99.90
30328;DHT22;17133;52.418;13.398;2022-10-16T14:21:06;20.10;99.90
30328;DHT22;17133;52.418;13.398;2022-10-16T14:23:36;20.10;99.90
30328;DHT22;17133;52.418;13.398;2022-10-16T14:28:37;20.00;99.90
30328;DHT22;17133;52.418;13.398;2022-10-16T14:31:27;20.00;99.90
30328;DHT22;17133;52.418;13.398;2022-10-16T14:33:53;19.90;99.90
30328;DHT22;17133;52.418;13.398;2022-10-16T14:36:19;19.90;99.90
30328;DHT22;17133;52.418;13.398;2022-10-16T14:39:19;19.90;99.90
30328;DHT22;17133;52.418;13.398;2022-10-16T14:41:48;19.80;99.90
30328;DHT22;17133;52.418;13.398;2022-10-16T14:44:14;19.80;99.90
30328;DHT22;17133;52.418;13.398;2022-10-16T14:46:41;19.80;99.90
30328;DHT22;17133;52.418;13.398;2022-10-16T14:51:37;19.80;99.90
30328;DHT22;17133;52.418;13.398;2022-10-16T14:54:03;19.70;99.90
30328;DHT22;17133;52.418;13.398;2022-10-16T14:56:31;19.70;99.90
30328;DHT22;17133;52.418;13.398;2022-10-16T14:58:59;19.80;99.90
30328;DHT22;17133;52.418;13.398;2022-10-16T15:01:26;22.10;99.90
30328;DHT22;17133;52.418;13.398;2022-10-16T15:03:51;19.60;99.90
30328;DHT22;17133;52.418;13.398;2022-10-16T15:06:19;19.60;99.90
30328;DHT22;17133;52.418;13.398;2022-10-16T15:08:45;17.60;99.90
30328;DHT22;17133;52.418;13.398;2022-10-16T15:11:16;19.50;99.90
30328;DHT22;17133;52.418;13.398;2022-10-16T15:13:42;19.40;99.90
30328;DHT22;17133;52.418;13.398;2022-10-16T15:16:13;19.30;99.90
30328;DHT22;17133;52.418;13.398;2022-10-16T15:18:39;22.00;99.90
30328;DHT22;17133;52.418;13.398;2022-10-16T15:21:05;19.20;99.90
30328;DHT22;17133;52.418;13.398;2022-10-16T15:23:31;19.20;99.90
30328;DHT22;17133;52.418;13.398;2022-10-16T15:25:56;19.30;99.90
30328;DHT22;17133;52.418;13.398;2022-10-16T15:28:23;19.00;99.90
30328;DHT22;17133;52.418;13.398;2022-10-16T15:30:51;19.00;99.90
30328;DHT22;17133;52.418;13.398;2022-10-16T15:33:25;18.90;99.90
30328;DHT22;17133;52.418;13.398;2022-10-16T15:35:54;19.00;99.90
30328;DHT22;17133;52.418;13.398;2022-10-16T15:38:21;18.90;99.90
30328;DHT22;17133;52.418;13.398;2022-10-16T15:40:48;18.80;99.90
30328;DHT22;17133;52.418;13.398;2022-10-16T15:43:13;18.70;99.90
30328;DHT22;17133;52.418;13.398;2022-10-16T15:45:39;18.70;99.90
30328;DHT22;17133;52.418;13.398;2022-10-16T15:48:05;18.60;99.90
30328;DHT22;17133;52.418;13.398;2022-10-16T15:50:32;20.40;99.90
30328;DHT22;17133;52.418;13.398;2022-10-16T15:52:58;17.90;99.90
30328;DHT22;17133;52.418;13.398;2022-10-16T15:55:24;18.30;99.90
30328;DHT22;17133;52.418;13.398;2022-10-16T15:57:49;18.20;99.90
30328;DHT22;17133;52.418;13.398;2022-10-16T16:00:17;18.20;99.90
30328;DHT22;17133;52.418;13.398;2022-10-16T16:02:50;18.10;99.90
30328;DHT22;17133;52.418;13.398;2022-10-16T16:05:17;18.00;99.90
30328;DHT22;17133;52.418;13.398;2022-10-16T16:07:43;17.90;99.90
30328;DHT22;17133;52.418;13.398;2022-10-16T16:10:10;17.90;99.90
30328;DHT22;17133;52.418;13.398;2022-10-16T16:12:36;17.80;99.90
30328;DHT22;17133;52.418;13.398;2022-10-16T16:15:06;17.70;99.90
30328;DHT22;17133;52.418;13.398;2022-10-16T16:17:33;17.60;99.90
30328;DHT22;17133;52.418;13.398;2022-10-16T16:19:59;17.50;99.90
30328;DHT22;17133;52.418;13.398;2022-10-16T16:22:25;17.50;99.90
30328;DHT22;17133;52.418;13.398;2022-10-16T16:24:51;17.40;99.90
30328;DHT22;17133;52.418;13.398;2022-10-16T16:27:16;17.30;99.90
30328;DHT22;17133;52.418;13.398;2022-10-16T16:29:42;16.70;99.90
30328;DHT22;17133;52.418;13.398;2022-10-16T16:32:07;17.10;99.90
30328;DHT22;17133;52.418;13.398;2022-10-16T16:34:33;17.00;99.90
30328;DHT22;17133;52.418;13.398;2022-10-16T16:36:59;16.90;99.90
30328;DHT22;17133;52.418;13.398;2022-10-16T16:39:25;16.70;99.90
30328;DHT22;17133;52.418;13.398;2022-10-16T16:41:51;16.60;99.90
30328;DHT22;17133;52.418;13.398;2022-10-16T16:44:17;16.50;99.90
30328;DHT22;17133;52.418;13.398;2022-10-16T16:46:43;16.50;99.90
30328;DHT22;17133;52.418;13.398;2022-10-16T16:49:13;16.30;99.90
30328;DHT22;17133;52.418;13.398;2022-10-16T16:51:39;16.20;99.90
30328;DHT22;17133;52.418;13.398;2022-10-16T16:54:05;16.20;99.90
30328;DHT22;17133;52.418;13.398;2022-10-16T16:56:32;15.60;99.90
30328;DHT22;17133;52.418;13.398;2022-10-16T16:58:58;15.60;99.90
30328;DHT22;17133;52.418;13.398;2022-10-16T17:01:25;15.90;99.90
30328;DHT22;17133;52.418;13.398;2022-10-16T17:03:52;15.80;99.90
30328;DHT22;17133;52.418;13.398;2022-10-16T17:06:20;16.40;99.90
30328;DHT22;17133;52.418;13.398;2022-10-16T17:08:45;15.70;99.90
30328;DHT22;17133;52.418;13.398;2022-10-16T17:11:14;15.60;99.90
30328;DHT22;17133;52.418;13.398;2022-10-16T17:13:41;15.40;99.90
30328;DHT22;17133;52.418;13.398;2022-10-16T17:16:07;15.40;99.90
30328;DHT22;17133;52.418;13.398;2022-10-16T17:18:33;15.30;99.90
30328;DHT22;17133;52.418;13.398;2022-10-16T17:21:00;15.30;99.90
30328;DHT22;17133;52.418;13.398;2022-10-16T17:23:26;15.20;99.90
30328;DHT22;17133;52.418;13.398;2022-10-16T17:25:52;15.20;99.90
30328;DHT22;17133;52.418;13.398;2022-10-16T17:28:18;15.10;99.90
30328;DHT22;17133;52.418;13.398;2022-10-16T17:30:43;15.00;99.90
30328;DHT22;17133;52.418;13.398;2022-10-16T17:33:10;14.90;99.90
30328;DHT22;17133;52.418;13.398;2022-10-16T17:35:38;14.90;99.90
30328;DHT22;17133;52.418;13.398;2022-10-16T17:38:04;14.80;99.90
30328;DHT22;17133;52.418;13.398;2022-10-16T17:40:29;14.80;99.90
30328;DHT22;17133;52.418;13.398;2022-10-16T17:42:55;14.70;99.90
30328;DHT22;17133;52.418;13.398;2022-10-16T17:45:20;14.60;99.90
30328;DHT22;17133;52.418;13.398;2022-10-16T17:47:46;14.50;99.90
30328;DHT22;17133;52.418;13.398;2022-10-16T17:50:12;14.20;99.90
30328;DHT22;17133;52.418;13.398;2022-10-16T17:52:37;14.40;99.90
30328;DHT22;17133;52.418;13.398;2022-10-16T17:55:03;14.40;99.90
30328;DHT22;17133;52.418;13.398;2022-10-16T17:57:29;14.40;99.90
30328;DHT22;17133;52.418;13.398;2022-10-16T17:59:54;14.30;99.90
30328;DHT22;17133;52.418;13.398;2022-10-16T18:02:20;14.00;99.90
30328;DHT22;17133;52.418;13.398;2022-10-16T18:09:38;14.10;99.90
30328;DHT22;17133;52.418;13.398;2022-10-16T18:12:04;14.00;99.90
30328;DHT22;17133;52.418;13.398;2022-10-16T18:14:31;14.00;99.90
30328;DHT22;17133;52.418;13.398;2022-10-16T18:16:57;13.90;99.90
30328;DHT22;17133;52.418;13.398;2022-10-16T18:19:24;13.90;99.90
30328;DHT22;17133;52.418;13.398;2022-10-16T18:21:50;13.80;99.90
30328;DHT22;17133;52.418;13.398;2022-10-16T18:24:17;13.80;99.90
30328;DHT22;17133;52.418;13.398;2022-10-16T18:26:44;13.80;99.90
30328;DHT22;17133;52.418;13.398;2022-10-16T18:29:11;13.60;99.90
30328;DHT22;17133;52.418;13.398;2022-10-16T18:31:37;13.70;99.90
30328;DHT22;17133;52.418;13.398;2022-10-16T18:39:01;13.60;99.90
30328;DHT22;17133;52.418;13.398;2022-10-16T18:41:28;13.10;99.90
30328;DHT22;17133;52.418;13.398;2022-10-16T18:43:54;14.20;99.90
30328;DHT22;17133;52.418;13.398;2022-10-16T18:46:22;13.50;99.90
30328;DHT22;17133;52.418;13.398;2022-10-16T18:48:48;13.40;99.90
30328;DHT22;17133;52.418;13.398;2022-10-16T18:53:48;13.40;99.90
30328;DHT22;17133;52.418;13.398;2022-10-16T18:58:44;13.30;99.90
30328;DHT22;17133;52.418;13.398;2022-10-16T19:01:12;13.30;99.90
30328;DHT22;17133;52.418;13.398;2022-10-16T19:03:39;13.30;99.90
30328;DHT22;17133;52.418;13.398;2022-10-16T19:06:08;13.30;99.90
30328;DHT22;17133;52.418;13.398;2022-10-16T19:08:35;12.80;99.90
30328;DHT22;17133;52.418;13.398;2022-10-16T19:11:08;13.10;99.90
30328;DHT22;17133;52.418;13.398;2022-10-16T19:13:35;13.20;99.90
